Time;durP1;ratioP1;P1;durP2;ratioP2;P2;SDS_P1;SDS_P2;PMS_P1;PMS_P2;Temp;Humidity;BMP_temperature;BMP_pressure;BME280_temperature;BME280_humidity;BME280_pressure;Samples;Min_cycle;Max_cycle;Signal;HPM_P1;HPM_P2
2023/11/24 00:05:40;;;;;;;2.50;0.30;;;8.60;99.90;;;;;;6161726;23;20055;-89
2023/11/24 00:09:20;;;;;;;3.60;0.50;;;8.50;99.90;;;;;;6165861;23;20049;-93
2023/11/24 00:12:11;;;;;;;3.95;0.40;;;8.40;99.90;;;;;;6132860;23;20056;-88
2023/11/24 00:14:40;;;;;;;3.55;0.30;;;8.40;99.90;;;;;;6108268;23;20024;-88
2023/11/24 00:17:15;;;;;;;1.92;0.30;;;8.40;99.90;;;;;;6109083;23;20014;-87
2023/11/24 00:19:48;;;;;;;4.47;0.30;;;8.30;99.90;;;;;;6132579;23;20451;-86
2023/11/24 00:22:19;;;;;;;1.40;0.20;;;8.30;99.90;;;;;;6106765;23;20322;-87
2023/11/24 00:24:54;;;;;;;2.97;0.38;;;8.20;99.90;;;;;;6131119;23;20027;-86
2023/11/24 00:27:23;;;;;;;1.83;0.28;;;8.10;99.90;;;;;;6130702;23;20404;-86
2023/11/24 00:30:00;;;;;;;0.85;0.10;;;8.10;99.90;;;;;;6180431;23;20026;-92
2023/11/24 00:32:30;;;;;;;4.65;0.30;;;8.10;99.90;;;;;;6106300;23;20025;-89
2023/11/24 00:35:01;;;;;;;2.80;0.50;;;8.10;99.90;;;;;;6131563;23;20132;-87
2023/11/24 00:37:50;;;;;;;;;;;;;;;;;;;;;
2023/11/24 00:40:31;;;;;;;2.13;0.43;;;8.20;99.90;;;;;;6131530;23;20024;-88
2023/11/24 00:43:20;;;;;;;4.80;0.52;;;8.20;99.70;;;;;;6131253;23;20029;-85
2023/11/24 00:46:13;;;;;;;4.70;0.60;;;8.30;99.60;;;;;;6068958;23;20020;-86
2023/11/24 00:48:53;;;;;;;5.72;0.50;;;8.30;99.50;;;;;;6160753;23;20024;-86
2023/11/24 00:51:57;;;;;;;;;;;;;;;;;;;;;
2023/11/24 00:54:36;;;;;;;4.68;0.38;;;8.30;99.30;;;;;;6184905;23;20013;-86
2023/11/24 00:57:36;;;;;;;5.70;0.95;;;8.40;99.30;;;;;;6159879;23;20029;-86
2023/11/24 01:00:38;;;;;;;4.93;0.30;;;8.40;99.10;;;;;;6084765;23;20017;-86
2023/11/24 01:03:52;;;;;;;2.72;0.40;;;8.30;99.20;;;;;;6184699;23;20013;-86
2023/11/24 01:06:23;;;;;;;4.88;0.63;;;8.30;99.10;;;;;;6160206;23;20024;-86
2023/11/24 01:09:00;;;;;;;4.50;0.68;;;8.30;99.10;;;;;;6135591;23;20101;-86
2023/11/24 01:11:50;;;;;;;4.32;0.77;;;8.30;99.00;;;;;;6184744;23;20024;-85
2023/11/24 01:14:35;;;;;;;6.65;1.05;;;8.20;99.00;;;;;;6185129;23;20021;-86
2023/11/24 01:17:20;;;;;;;2.80;0.40;;;8.20;99.00;;;;;;6164809;23;20025;-86
2023/11/24 01:20:16;;;;;;;1.92;0.40;;;8.10;99.20;;;;;;6158715;23;20443;-86
2023/11/24 01:22:45;;;;;;;3.92;0.52;;;8.10;99.40;;;;;;6159999;23;20049;-86
2023/11/24 01:25:15;;;;;;;4.13;0.57;;;8.00;99.40;;;;;;6159975;23;20360;-86
2023/11/24 01:28:03;;;;;;;3.60;0.40;;;8.00;99.50;;;;;;6159469;23;20025;-86
2023/11/24 01:30:45;;;;;;;3.65;0.80;;;8.00;99.60;;;;;;6160254;23;20021;-86
2023/11/24 01:34:10;;;;;;;3.13;0.40;;;7.90;99.60;;;;;;6163049;23;20025;-86
2023/11/24 01:37:20;;;;;;;6.35;0.52;;;7.90;99.70;;;;;;6160161;23;20395;-86
2023/11/24 01:40:37;;;;;;;1.40;0.30;;;7.90;99.70;;;;;;6147526;23;20025;-86
2023/11/24 01:43:24;;;;;;;3.47;0.50;;;7.90;99.70;;;;;;6137308;23;20395;-86
2023/11/24 01:46:33;;;;;;;;;;;;;;;;;;;;;
2023/11/24 01:49:29;;;;;;;6.93;0.40;;;7.80;99.70;;;;;;6129905;23;20490;-86
2023/11/24 01:52:42;;;;;;;2.83;0.50;;;7.80;99.70;;;;;;6130586;23;20021;-86
2023/11/24 01:55:23;;;;;;;5.68;0.38;;;7.80;99.80;;;;;;6154903;23;20028;-86
2023/11/24 01:58:37;;;;;;;5.65;0.60;;;7.80;99.80;;;;;;6124330;23;20038;-86
2023/11/24 02:01:37;;;;;;;6.07;1.05;;;7.80;99.80;;;;;;6124686;23;20025;-85
2023/11/24 02:04:32;;;;;;;6.65;0.50;;;7.80;99.70;;;;;;6103501;23;20074;-85
2023/11/24 02:07:07;;;;;;;6.10;0.70;;;7.80;99.60;;;;;;6124326;23;20022;-85
2023/11/24 02:09:35;;;;;;;8.33;1.13;;;7.80;99.60;;;;;;6125011;23;20026;-85
2023/11/24 02:12:03;;;;;;;7.25;1.25;;;7.80;99.50;;;;;;6100433;23;20270;-86
2023/11/24 02:14:39;;;;;;;6.72;0.85;;;7.90;99.30;;;;;;6125041;23;20025;-86
2023/11/24 02:17:08;;;;;;;5.97;0.80;;;7.90;99.30;;;;;;6076548;23;20452;-86
2023/11/24 02:19:45;;;;;;;6.72;1.30;;;7.90;99.20;;;;;;6100082;23;20025;-86
2023/11/24 02:22:55;;;;;;;;;;;;;;;;;;;;;
2023/11/24 02:25:31;;;;;;;3.17;0.40;;;7.90;99.20;;;;;;6081513;23;20032;-85
2023/11/24 02:28:06;;;;;;;3.70;1.25;;;7.80;99.30;;;;;;6129742;23;20032;-85
2023/11/24 02:30:34;;;;;;;8.38;0.75;;;7.80;99.20;;;;;;6154972;23;20032;-86
2023/11/24 02:33:22;;;;;;;3.85;0.60;;;7.80;99.10;;;;;;6134501;23;20113;-86
2023/11/24 02:35:55;;;;;;;5.45;1.08;;;7.80;99.20;;;;;;6155220;23;20033;-85
2023/11/24 02:38:30;;;;;;;7.70;0.88;;;7.70;99.10;;;;;;6106755;23;20024;-86
2023/11/24 02:41:01;;;;;;;5.07;0.77;;;7.80;99.10;;;;;;6130042;23;20028;-85
2023/11/24 02:43:32;;;;;;;3.25;0.60;;;7.70;99.10;;;;;;6130539;23;20064;-86
2023/11/24 02:46:00;;;;;;;4.35;0.57;;;7.70;99.20;;;;;;6167463;23;20055;-86
2023/11/24 02:48:38;;;;;;;8.10;0.80;;;7.70;99.20;;;;;;6162459;23;20440;-86
2023/11/24 02:51:07;;;;;;;3.38;0.63;;;7.80;99.00;;;;;;6161883;23;20028;-86
2023/11/24 02:54:00;;;;;;;5.22;0.70;;;7.80;99.00;;;;;;6166744;23;20519;-85
2023/11/24 02:56:35;;;;;;;4.32;0.80;;;7.80;98.90;;;;;;6160518;23;20025;-85
2023/11/24 02:59:21;;;;;;;5.35;0.40;;;7.80;99.00;;;;;;6161485;23;20067;-85
2023/11/24 03:01:56;;;;;;;5.10;0.28;;;7.80;99.00;;;;;;6163514;23;20023;-85
2023/11/24 03:04:30;;;;;;;3.17;0.30;;;7.80;99.00;;;;;;6162563;23;20021;-85
2023/11/24 03:07:11;;;;;;;2.47;0.30;;;7.70;99.10;;;;;;6161096;23;20111;-85
2023/11/24 03:09:40;;;;;;;1.50;0.30;;;7.70;99.20;;;;;;6162088;23;20021;-85
2023/11/24 03:12:11;;;;;;;1.88;0.40;;;7.60;99.10;;;;;;6161947;23;20509;-86
2023/11/24 03:15:09;;;;;;;3.60;0.52;;;7.70;99.20;;;;;;6142798;23;20032;-85
2023/11/24 03:17:49;;;;;;;6.28;0.70;;;7.70;99.20;;;;;;6186234;23;20023;-85
2023/11/24 03:20:21;;;;;;;3.90;0.75;;;7.70;99.20;;;;;;6137498;23;20474;-85
2023/11/24 03:22:59;;;;;;;5.05;0.63;;;7.70;99.10;;;;;;6161549;23;20021;-85
2023/11/24 03:25:27;;;;;;;2.75;0.20;;;7.70;99.00;;;;;;6159987;23;20048;-85
2023/11/24 03:28:27;;;;;;;1.08;0.22;;;7.70;99.00;;;;;;6185941;23;20045;-85
2023/11/24 03:30:58;;;;;;;2.95;0.30;;;7.80;99.00;;;;;;6161213;23;20035;-85
2023/11/24 03:33:26;;;;;;;5.22;0.68;;;7.90;98.90;;;;;;6186125;23;20107;-86
2023/11/24 03:36:13;;;;;;;8.18;1.00;;;7.90;98.50;;;;;;6139665;23;20025;-85
2023/11/24 03:38:41;;;;;;;4.95;0.70;;;7.90;98.10;;;;;;6161149;23;20432;-86
2023/11/24 03:41:13;;;;;;;6.05;0.60;;;7.80;98.30;;;;;;6163118;23;20021;-86
2023/11/24 03:43:54;;;;;;;5.13;0.32;;;7.80;98.20;;;;;;6137047;23;20028;-86
2023/11/24 03:46:21;;;;;;;4.13;0.40;;;7.70;98.30;;;;;;6156489;23;20041;-86
2023/11/24 03:48:58;;;;;;;4.07;0.30;;;7.70;98.50;;;;;;6131370;23;20054;-85
2023/11/24 03:51:34;;;;;;;4.15;0.47;;;7.70;98.60;;;;;;6131664;23;20032;-86
2023/11/24 03:54:23;;;;;;;2.20;0.60;;;7.70;98.60;;;;;;6132214;23;20018;-86
2023/11/24 03:56:50;;;;;;;4.55;0.50;;;7.80;98.70;;;;;;6131158;23;20049;-86
2023/11/24 03:59:21;;;;;;;0.95;0.20;;;7.80;98.60;;;;;;6112850;23;20013;-87
2023/11/24 04:01:51;;;;;;;3.80;0.38;;;7.70;98.50;;;;;;6142493;23;20021;-87
2023/11/24 04:04:31;;;;;;;0.40;0.10;;;7.60;98.70;;;;;;6121202;23;20024;-87
2023/11/24 04:07:02;;;;;;;2.65;0.35;;;7.50;98.90;;;;;;6147423;23;20021;-87
2023/11/24 04:09:36;;;;;;;4.50;0.63;;;7.40;99.10;;;;;;6122732;23;20044;-86
2023/11/24 04:12:51;;;;;;;3.92;0.40;;;7.30;99.20;;;;;;6134921;23;20053;-86
2023/11/24 04:15:44;;;;;;;3.00;0.32;;;7.30;99.30;;;;;;6134315;23;20052;-86
2023/11/24 04:18:32;;;;;;;2.10;0.43;;;7.30;99.30;;;;;;6131450;23;20029;-86
2023/11/24 04:21:47;;;;;;;3.35;0.40;;;7.30;99.40;;;;;;6132225;23;20021;-86
2023/11/24 04:24:31;;;;;;;4.40;0.80;;;7.30;99.40;;;;;;6131475;23;20025;-87
2023/11/24 04:27:08;;;;;;;7.90;0.75;;;7.30;99.40;;;;;;6131657;23;20021;-86
2023/11/24 04:30:13;;;;;;;3.25;0.40;;;7.30;99.40;;;;;;6121779;23;20073;-86
2023/11/24 04:33:02;;;;;;;2.30;0.20;;;7.30;99.40;;;;;;6107662;23;20036;-86
2023/11/24 04:36:35;;;;;;;3.13;0.30;;;7.30;99.40;;;;;;6129879;23;20109;-87
2023/11/24 04:39:43;;;;;;;4.68;0.50;;;7.30;99.30;;;;;;6130767;23;20028;-86
2023/11/24 04:42:34;;;;;;;2.13;0.10;;;7.20;99.40;;;;;;6130486;23;20025;-86
2023/11/24 04:45:27;;;;;;;4.72;0.40;;;7.20;99.40;;;;;;6132619;23;20028;-86
2023/11/24 04:48:12;;;;;;;;;;;7.20;99.40;;;;;;6186594;23;20432;-86
2023/11/24 04:51:00;;;;;;;2.78;0.40;;;7.20;99.40;;;;;;6185384;23;19944;-86
2023/11/24 04:53:41;;;;;;;3.17;0.30;;;7.30;99.30;;;;;;6160319;23;20440;-86
2023/11/24 04:56:21;;;;;;;3.65;0.30;;;7.30;99.10;;;;;;6137690;23;20027;-86
2023/11/24 04:58:57;;;;;;;2.08;0.20;;;7.40;99.00;;;;;;6160493;23;20055;-86
2023/11/24 05:01:28;;;;;;;3.00;0.30;;;7.40;99.00;;;;;;6184807;23;20021;-86
2023/11/24 05:03:59;;;;;;;9.00;1.53;;;7.40;98.90;;;;;;6135805;23;20021;-86
2023/11/24 05:06:29;;;;;;;3.70;0.40;;;7.40;98.80;;;;;;6160807;23;20021;-86
2023/11/24 05:09:05;;;;;;;2.90;0.47;;;7.50;99.00;;;;;;6160263;23;20021;-85
2023/11/24 05:11:39;;;;;;;5.45;0.30;;;7.40;98.70;;;;;;6160120;23;20029;-85
2023/11/24 05:14:13;;;;;;;3.83;0.38;;;7.40;98.60;;;;;;6181071;23;20025;-85
2023/11/24 05:16:40;;;;;;;5.38;0.50;;;7.30;98.50;;;;;;6184959;23;20348;-85
2023/11/24 05:19:08;;;;;;;4.72;0.70;;;7.30;98.30;;;;;;6185095;23;20021;-85
2023/11/24 05:21:42;;;;;;;7.68;0.68;;;7.30;98.30;;;;;;6184902;23;20020;-86
2023/11/24 05:24:16;;;;;;;5.00;0.90;;;7.40;98.30;;;;;;6161492;23;20431;-85
2023/11/24 05:26:47;;;;;;;4.85;0.45;;;7.40;98.10;;;;;;6209096;23;20059;-86
2023/11/24 05:29:26;;;;;;;3.72;0.30;;;7.40;97.90;;;;;;6184647;23;20107;-86
2023/11/24 05:31:56;;;;;;;4.75;0.45;;;7.50;97.90;;;;;;6210180;23;20021;-85
2023/11/24 05:34:29;;;;;;;3.40;0.50;;;7.40;97.70;;;;;;6159931;23;20512;-85
2023/11/24 05:37:05;;;;;;;1.88;0.20;;;7.50;97.70;;;;;;6183700;23;20028;-85
2023/11/24 05:39:37;;;;;;;1.63;0.20;;;7.50;97.70;;;;;;6160445;23;20017;-85
2023/11/24 05:42:05;;;;;;;3.15;0.30;;;7.50;97.60;;;;;;6160008;23;20100;-84
2023/11/24 05:44:55;;;;;;;5.07;0.50;;;7.50;97.30;;;;;;6184718;23;20017;-86
2023/11/24 05:47:22;;;;;;;3.38;0.32;;;7.40;97.10;;;;;;6107890;23;20029;-86
2023/11/24 05:50:16;;;;;;;;;;;;;;;;;;;;;
2023/11/24 05:52:58;;;;;;;3.88;0.30;;;7.00;97.70;;;;;;6130518;23;20348;-86
2023/11/24 05:55:49;;;;;;;3.92;1.13;;;6.80;98.00;;;;;;6151831;23;20053;-86
2023/11/24 05:59:23;;;;;;;2.22;0.30;;;6.70;98.30;;;;;;6129164;23;20441;-87
2023/11/24 06:01:51;;;;;;;;;;;6.60;98.60;;;;;;6131377;23;20021;-87
2023/11/24 06:04:29;;;;;;;5.03;0.43;;;6.50;98.70;;;;;;6155719;23;19917;-87
2023/11/24 06:08:43;;;;;;;4.22;0.25;;;6.50;98.90;;;;;;6138802;23;20352;-87
2023/11/24 06:11:28;;;;;;;3.65;0.50;;;6.50;99.00;;;;;;6108727;23;20021;-86
2023/11/24 06:13:56;;;;;;;5.30;0.30;;;6.40;99.10;;;;;;6130586;23;20029;-86
2023/11/24 06:16:28;;;;;;;2.53;0.50;;;6.40;99.20;;;;;;6130866;23;20049;-86
2023/11/24 06:19:02;;;;;;;4.68;0.50;;;6.30;99.30;;;;;;6130126;23;20056;-86
2023/11/24 06:21:38;;;;;;;2.63;0.30;;;6.30;99.40;;;;;;6129513;23;20041;-86
2023/11/24 06:24:06;;;;;;;3.22;0.63;;;6.40;99.50;;;;;;6156236;23;20080;-86
2023/11/24 06:26:35;;;;;;;4.63;0.40;;;6.40;99.50;;;;;;6156710;23;20021;-86
2023/11/24 06:29:24;;;;;;;4.35;0.30;;;6.30;99.50;;;;;;6131043;23;20340;-86
2023/11/24 06:31:58;;;;;;;2.80;0.30;;;6.30;99.60;;;;;;6108337;23;20021;-86
2023/11/24 06:34:32;;;;;;;4.88;0.32;;;6.30;99.60;;;;;;6134050;23;20071;-85
2023/11/24 06:37:17;;;;;;;;;;;6.30;99.60;;;;;;6135604;23;20108;-86
2023/11/24 06:39:54;;;;;;;5.82;0.50;;;6.40;99.60;;;;;;6108461;23;19923;-86
2023/11/24 06:42:24;;;;;;;4.30;0.60;;;6.40;99.50;;;;;;6108326;23;20028;-86
2023/11/24 06:45:20;;;;;;;4.78;0.43;;;6.40;99.50;;;;;;6156483;23;20467;-86
2023/11/24 06:47:52;;;;;;;2.65;0.35;;;6.30;99.50;;;;;;6161931;23;20391;-86
2023/11/24 06:50:45;;;;;;;5.20;0.70;;;6.30;99.60;;;;;;6097267;23;20062;-86
2023/11/24 06:53:27;;;;;;;4.82;0.57;;;6.40;99.70;;;;;;6163762;23;20027;-87
2023/11/24 06:55:58;;;;;;;3.35;1.05;;;6.40;99.70;;;;;;6161830;23;20025;-86
2023/11/24 06:58:26;;;;;;;3.22;0.50;;;6.40;99.70;;;;;;6138456;23;20021;-86
2023/11/24 07:00:57;;;;;;;4.53;0.38;;;6.50;99.70;;;;;;6161085;23;20017;-86
2023/11/24 07:03:28;;;;;;;3.40;0.40;;;6.40;99.70;;;;;;6136659;23;20021;-86
2023/11/24 07:06:01;;;;;;;2.78;0.30;;;6.40;99.70;;;;;;6161303;23;20021;-85
2023/11/24 07:08:37;;;;;;;2.97;0.40;;;6.40;99.70;;;;;;6161976;23;20025;-86
2023/11/24 07:11:07;;;;;;;4.53;0.68;;;6.30;99.60;;;;;;6162821;23;20033;-86
2023/11/24 07:13:35;;;;;;;3.30;0.60;;;6.30;99.70;;;;;;6136609;23;20447;-86
2023/11/24 07:16:09;;;;;;;1.42;0.30;;;6.30;99.80;;;;;;6186418;23;20017;-86
2023/11/24 07:18:53;;;;;;;2.78;0.85;;;6.30;99.80;;;;;;6181372;23;20103;-85
2023/11/24 07:21:21;;;;;;;3.33;0.55;;;6.40;99.80;;;;;;6186009;23;20020;-85
2023/11/24 07:24:13;;;;;;;4.32;1.10;;;6.40;99.80;;;;;;6165579;23;20017;-87
2023/11/24 07:26:40;;;;;;;5.47;0.60;;;6.40;99.80;;;;;;6135727;23;20104;-87
2023/11/24 07:38:11;;;;;;;4.15;0.40;;;6.20;99.90;;;;;;6161281;23;20017;-87
2023/11/24 07:41:44;;;;;;;2.15;0.25;;;6.00;99.90;;;;;;6137041;23;20542;-87
2023/11/24 07:45:00;;;;;;;0.60;0.30;;;6.00;99.90;;;;;;6140277;23;20041;-86
2023/11/24 07:47:53;;;;;;;2.20;0.25;;;5.90;99.90;;;;;;6164544;23;20017;-86
2023/11/24 07:50:32;;;;;;;2.55;0.40;;;6.00;99.90;;;;;;6136389;23;20071;-85
2023/11/24 07:58:02;;;;;;;5.93;0.77;;;6.10;99.90;;;;;;6187255;23;20087;-85
2023/11/24 08:00:54;;;;;;;5.80;0.47;;;6.10;99.90;;;;;;6140991;23;20017;-86
2023/11/24 08:03:24;;;;;;;1.92;0.38;;;6.00;99.90;;;;;;6164319;23;20387;-85
2023/11/24 08:06:06;;;;;;;3.22;0.60;;;6.00;99.90;;;;;;6189129;23;20053;-86
2023/11/24 08:08:36;;;;;;;5.80;0.80;;;6.00;99.90;;;;;;6174757;23;20112;-86
2023/11/24 08:11:04;;;;;;;3.00;0.35;;;5.90;99.90;;;;;;6138177;23;20052;-86
2023/11/24 08:13:32;;;;;;;2.90;0.50;;;5.90;99.90;;;;;;6187369;23;20324;-86
2023/11/24 08:16:12;;;;;;;3.17;0.35;;;6.00;99.90;;;;;;6163745;23;20025;-87
2023/11/24 08:19:09;;;;;;;1.73;0.30;;;6.00;99.90;;;;;;6186230;23;20017;-86
2023/11/24 08:21:41;;;;;;;4.00;0.30;;;6.10;99.90;;;;;;6186077;23;20024;-86
2023/11/24 08:24:16;;;;;;;7.53;0.60;;;6.10;99.90;;;;;;6160742;23;20013;-86
2023/11/24 08:27:02;;;;;;;5.53;0.50;;;6.10;99.90;;;;;;6136338;23;20033;-86
2023/11/24 08:30:13;;;;;;;2.10;0.38;;;6.10;99.90;;;;;;6160964;23;20024;-86
2023/11/24 08:37:46;;;;;;;4.40;0.30;;;6.10;99.90;;;;;;6186771;23;20060;-87
2023/11/24 08:40:16;;;;;;;3.53;0.35;;;6.00;99.90;;;;;;6185617;23;20037;-86
2023/11/24 08:42:57;;;;;;;2.65;0.20;;;6.00;99.90;;;;;;6185539;23;20024;-88
2023/11/24 08:46:03;;;;;;;2.83;0.40;;;6.00;99.90;;;;;;6159370;23;20100;-87
2023/11/24 08:49:29;;;;;;;1.25;0.20;;;6.00;99.90;;;;;;6106709;23;20457;-87
2023/11/24 08:52:03;;;;;;;5.43;0.65;;;5.90;99.90;;;;;;6155046;23;20462;-86
2023/11/24 08:54:32;;;;;;;3.33;0.22;;;5.90;99.90;;;;;;6152880;23;20018;-87
2023/11/24 08:58:17;;;;;;;1.30;0.20;;;5.90;99.90;;;;;;6096250;23;20066;-88
2023/11/24 09:00:53;;;;;;;3.30;0.22;;;5.90;99.90;;;;;;6071286;23;20105;-88
2023/11/24 09:03:33;;;;;;;2.65;0.20;;;5.90;99.90;;;;;;6072736;23;20030;-87
2023/11/24 09:06:03;;;;;;;2.22;0.20;;;5.90;99.90;;;;;;6048616;23;20027;-88
2023/11/24 09:09:39;;;;;;;5.60;0.20;;;5.90;99.90;;;;;;6077202;23;20010;-86
2023/11/24 09:12:17;;;;;;;2.67;0.20;;;5.80;99.90;;;;;;6095842;23;20022;-87
2023/11/24 09:20:11;;;;;;;2.65;0.20;;;5.80;99.90;;;;;;5981928;24;20022;-86
2023/11/24 09:23:00;;;;;;;2.13;0.20;;;5.80;99.90;;;;;;5958277;24;20020;-87
2023/11/24 09:31:20;;;;;;;1.63;0.35;;;5.90;99.90;;;;;;5981864;24;20048;-86
2023/11/24 09:34:47;;;;;;;3.15;0.30;;;5.90;99.90;;;;;;5998712;23;20406;-86
2023/11/24 09:42:13;;;;;;;4.20;0.40;;;6.00;99.90;;;;;;5953741;24;20416;-85
2023/11/24 09:45:44;;;;;;;1.85;0.20;;;5.90;99.90;;;;;;5939456;23;20023;-87
2023/11/24 09:48:31;;;;;;;3.80;0.50;;;6.00;99.90;;;;;;5987907;23;20514;-86
2023/11/24 09:51:22;;;;;;;1.65;0.17;;;6.30;99.90;;;;;;5991776;23;20183;-87
2023/11/24 09:54:03;;;;;;;1.38;0.30;;;6.50;99.90;;;;;;5993202;23;20046;-87
2023/11/24 09:56:33;;;;;;;1.65;0.10;;;6.50;99.80;;;;;;5993677;23;20106;-87
2023/11/24 09:59:09;;;;;;;3.40;0.52;;;6.50;99.70;;;;;;6068299;23;20079;-86
2023/11/24 10:01:47;;;;;;;1.33;0.28;;;6.50;99.70;;;;;;6125064;23;20028;-84
2023/11/24 10:04:20;;;;;;;3.50;0.40;;;6.50;99.80;;;;;;6109067;23;20108;-83
2023/11/24 10:06:49;;;;;;;1.27;0.30;;;6.50;99.90;;;;;;6131889;23;20014;-84
2023/11/24 10:09:25;;;;;;;1.27;0.32;;;6.50;99.90;;;;;;6156767;23;20017;-87
2023/11/24 10:12:01;;;;;;;0.40;0.10;;;6.70;99.90;;;;;;6132099;23;20025;-87
2023/11/24 10:14:44;;;;;;;3.85;0.43;;;6.70;99.90;;;;;;6132284;23;20388;-86
2023/11/24 10:17:25;;;;;;;3.75;0.43;;;6.70;99.90;;;;;;6134461;23;20067;-82
2023/11/24 10:19:52;;;;;;;3.33;0.35;;;6.60;99.90;;;;;;6107937;23;20325;-86
2023/11/24 10:23:09;;;;;;;1.33;0.30;;;6.60;99.90;;;;;;6132300;23;20021;-86
2023/11/24 10:25:38;;;;;;;2.55;0.22;;;6.50;99.90;;;;;;6132644;23;20421;-84
2023/11/24 10:28:10;;;;;;;3.17;0.20;;;6.40;99.90;;;;;;6108829;23;20029;-86
2023/11/24 10:30:55;;;;;;;2.17;0.20;;;6.30;99.90;;;;;;6131954;23;20017;-85
2023/11/24 10:33:26;;;;;;;5.75;0.50;;;6.30;99.90;;;;;;6107623;23;20017;-84
2023/11/24 10:36:10;;;;;;;2.17;0.22;;;6.20;99.90;;;;;;6135550;23;20560;-84
2023/11/24 10:38:40;;;;;;;5.05;0.30;;;6.10;99.80;;;;;;6131435;23;20018;-86
2023/11/24 10:41:24;;;;;;;2.70;0.40;;;6.20;99.80;;;;;;6110792;23;20025;-82
2023/11/24 10:44:15;;;;;;;1.67;0.28;;;6.20;99.70;;;;;;6131872;23;20029;-85
2023/11/24 10:46:53;;;;;;;7.30;0.50;;;6.30;99.70;;;;;;6107417;23;20026;-85
2023/11/24 10:49:30;;;;;;;1.20;0.20;;;6.40;99.50;;;;;;6131874;23;20022;-86
2023/11/24 10:52:00;;;;;;;1.63;0.20;;;6.50;99.30;;;;;;6131856;23;20059;-84
2023/11/24 10:54:38;;;;;;;4.78;0.63;;;6.50;99.20;;;;;;6156546;23;20026;-85
2023/11/24 10:57:06;;;;;;;6.40;0.55;;;6.60;99.20;;;;;;6156202;23;20025;-85
2023/11/24 10:59:38;;;;;;;4.72;0.35;;;6.70;99.10;;;;;;6156152;23;20028;-85
2023/11/24 11:02:14;;;;;;;3.45;0.40;;;6.80;98.60;;;;;;6107618;23;20023;-84
2023/11/24 11:05:07;;;;;;;1.77;0.40;;;7.00;98.40;;;;;;6156764;23;20104;-86
2023/11/24 11:08:03;;;;;;;6.63;0.70;;;7.00;98.40;;;;;;6131690;23;20021;-85
2023/11/24 11:11:01;;;;;;;4.93;0.60;;;7.00;97.80;;;;;;6156741;23;20025;-85
2023/11/24 11:13:53;;;;;;;;;;;;;;;;;;;;;
2023/11/24 11:17:26;;;;;;;5.47;0.80;;;6.90;97.60;;;;;;6155119;23;20021;-85
2023/11/24 11:21:00;;;;;;;5.75;0.70;;;6.90;97.50;;;;;;6172417;23;20018;-85
2023/11/24 11:23:57;;;;;;;2.73;0.40;;;6.80;97.50;;;;;;6131978;23;20051;-86
2023/11/24 11:27:21;;;;;;;4.93;0.50;;;6.70;97.70;;;;;;6156204;23;20264;-84
2023/11/24 11:29:52;;;;;;;7.50;1.00;;;6.70;97.80;;;;;;6067476;23;20084;-84
2023/11/24 11:32:31;;;;;;;6.75;1.33;;;6.70;97.80;;;;;;6011777;23;20030;-85
2023/11/24 11:35:08;;;;;;;4.38;0.50;;;6.70;97.70;;;;;;6131981;23;20398;-85
2023/11/24 11:37:37;;;;;;;7.65;0.70;;;6.80;97.70;;;;;;6155930;23;20025;-83
2023/11/24 11:40:12;;;;;;;7.07;1.25;;;6.90;97.50;;;;;;6107124;23;20025;-86
2023/11/24 11:43:27;;;;;;;9.30;0.82;;;7.20;97.30;;;;;;6156291;23;20231;-85
2023/11/24 11:46:04;;;;;;;6.45;0.82;;;7.30;97.10;;;;;;6131800;23;20101;-86
2023/11/24 11:49:19;;;;;;;5.88;0.65;;;7.00;97.20;;;;;;6132202;23;20024;-86
2023/11/24 11:52:11;;;;;;;6.57;1.10;;;6.90;97.50;;;;;;6133121;23;20014;-85
2023/11/24 11:59:05;;;;;;;10.10;1.10;;;6.60;98.00;;;;;;6155928;23;20084;-84
2023/11/24 12:01:35;;;;;;;9.32;1.05;;;6.70;98.00;;;;;;6141876;23;20076;-88
2023/11/24 12:04:12;;;;;;;6.93;1.10;;;6.70;97.90;;;;;;6172516;23;20020;-85
2023/11/24 12:06:42;;;;;;;7.22;1.05;;;6.80;98.00;;;;;;6149091;23;20025;-85
2023/11/24 12:09:23;;;;;;;4.75;0.35;;;6.70;98.00;;;;;;6137761;23;20049;-85
2023/11/24 12:11:52;;;;;;;8.50;1.00;;;6.60;98.10;;;;;;6163147;23;20064;-84
2023/11/24 12:14:29;;;;;;;8.60;1.27;;;6.50;98.20;;;;;;6157746;23;20029;-85
2023/11/24 12:17:14;;;;;;;7.00;0.75;;;6.50;98.40;;;;;;6110475;23;20021;-84
2023/11/24 12:19:53;;;;;;;6.32;0.90;;;6.60;98.50;;;;;;6131491;23;20371;-84
2023/11/24 12:22:32;;;;;;;4.32;0.75;;;6.60;98.40;;;;;;6131725;23;20490;-85
2023/11/24 12:25:10;;;;;;;9.02;1.42;;;6.70;98.00;;;;;;6132593;23;20056;-85
2023/11/24 12:27:49;;;;;;;10.00;1.08;;;6.80;97.90;;;;;;6155060;23;20097;-86
2023/11/24 12:30:22;;;;;;;10.30;2.28;;;7.00;97.70;;;;;;6131677;23;20072;-87
2023/11/24 12:33:26;;;;;;;10.07;0.95;;;7.10;97.40;;;;;;6131423;23;20053;-86
2023/11/24 12:36:08;;;;;;;6.95;0.90;;;7.20;97.00;;;;;;6137319;23;20029;-85
2023/11/24 12:38:56;;;;;;;9.07;1.10;;;7.20;97.00;;;;;;6130893;23;20070;-90
2023/11/24 12:59:49;;;;;;;4.95;0.77;;;7.30;96.90;;;;;;6155610;23;20108;-86
2023/11/24 13:02:30;;;;;;;;;;;;;;;;;;;;;
2023/11/24 13:05:38;;;;;;;5.10;0.63;;;7.00;97.40;;;;;;6131003;23;20013;-86
2023/11/24 13:09:33;;;;;;;;;;;;;;;;;;;;;
2023/11/24 13:12:30;;;;;;;4.68;0.40;;;6.60;97.80;;;;;;6130759;23;20095;-86
2023/11/24 13:15:12;;;;;;;7.55;1.45;;;6.50;97.90;;;;;;6153406;23;20021;-85
2023/11/24 13:18:15;;;;;;;10.90;0.80;;;6.50;97.80;;;;;;6154904;23;20029;-84
2023/11/24 13:20:44;;;;;;;8.70;1.10;;;6.70;97.50;;;;;;6130739;23;20027;-86
2023/11/24 13:23:24;;;;;;;7.10;1.08;;;6.70;96.80;;;;;;6131019;23;20028;-85
2023/11/24 13:25:52;;;;;;;4.95;0.73;;;6.70;96.60;;;;;;6130611;23;20370;-86
2023/11/24 13:28:22;;;;;;;5.55;0.80;;;6.60;96.70;;;;;;6130570;23;20073;-85
2023/11/24 13:30:50;;;;;;;4.72;0.40;;;6.60;96.80;;;;;;6130531;23;20085;-86
2023/11/24 13:33:17;;;;;;;4.15;0.63;;;6.60;96.60;;;;;;6155033;23;20033;-85
2023/11/24 13:35:50;;;;;;;4.97;0.52;;;6.60;96.70;;;;;;6130808;23;20060;-86
2023/11/24 13:38:22;;;;;;;4.88;0.47;;;6.60;96.60;;;;;;6131155;23;20026;-86
2023/11/24 13:40:52;;;;;;;5.83;0.57;;;6.60;96.30;;;;;;6106701;23;20017;-85
2023/11/24 13:44:06;;;;;;;4.93;0.60;;;6.50;96.40;;;;;;6131658;23;20070;-86
2023/11/24 13:46:47;;;;;;;;;;;;;;;;;;;;;
2023/11/24 13:49:58;;;;;;;1.15;0.30;;;6.30;96.60;;;;;;6130696;23;20068;-86
2023/11/24 13:52:35;;;;;;;;;;;6.30;96.50;;;;;;6109340;23;20452;-88
2023/11/24 13:55:07;;;;;;;4.65;0.40;;;6.20;96.50;;;;;;6130187;23;19917;-85
2023/11/24 13:58:17;;;;;;;2.88;0.40;;;6.30;96.10;;;;;;6066486;23;20116;-84
2023/11/24 14:01:00;;;;;;;4.65;0.35;;;6.40;95.70;;;;;;6094336;23;20524;-84
2023/11/24 14:03:27;;;;;;;1.15;0.32;;;6.40;95.70;;;;;;6071675;23;20022;-84
2023/11/24 14:05:55;;;;;;;3.70;0.28;;;6.40;95.40;;;;;;6047914;23;20018;-85
2023/11/24 14:08:23;;;;;;;2.25;0.38;;;6.40;95.50;;;;;;6047625;23;20029;-83
2023/11/24 14:14:27;;;;;;;9.02;0.75;;;6.30;95.10;;;;;;6095270;23;19921;-87
2023/11/24 14:17:03;;;;;;;5.05;0.60;;;6.30;95.10;;;;;;6137664;23;20025;-84
2023/11/24 14:19:35;;;;;;;3.20;0.47;;;6.30;95.10;;;;;;6160034;23;20017;-86
2023/11/24 14:22:48;;;;;;;9.65;0.57;;;6.30;94.90;;;;;;6185017;23;20119;-85
2023/11/24 14:25:15;;;;;;;;;;;6.30;94.90;;;;;;6161282;23;20104;-83
2023/11/24 14:28:08;;;;;;;4.95;0.77;;;6.30;95.00;;;;;;6161790;23;19916;-88
2023/11/24 14:30:49;;;;;;;5.18;0.75;;;6.30;95.20;;;;;;6138110;23;20539;-86
2023/11/24 14:33:24;;;;;;;5.63;0.40;;;6.30;95.40;;;;;;6160228;23;20033;-86
2023/11/24 14:35:55;;;;;;;7.25;0.77;;;6.30;95.40;;;;;;6159697;23;20025;-86
2023/11/24 14:38:22;;;;;;;5.85;0.70;;;6.30;95.30;;;;;;6160034;23;20091;-84
2023/11/24 14:40:50;;;;;;;5.22;0.70;;;6.30;95.30;;;;;;6160652;23;20021;-84
2023/11/24 14:43:17;;;;;;;3.15;0.55;;;6.40;95.00;;;;;;6161535;23;20451;-83
2023/11/24 14:45:46;;;;;;;5.60;0.93;;;6.40;95.00;;;;;;6161697;23;20043;-84
2023/11/24 14:48:14;;;;;;;9.85;1.05;;;6.50;95.10;;;;;;6161747;23;20017;-86
2023/11/24 14:50:41;;;;;;;4.50;0.60;;;6.60;94.60;;;;;;6186953;23;20028;-89
2023/11/24 14:53:09;;;;;;;4.55;0.88;;;6.70;94.80;;;;;;6188667;23;20045;-85
2023/11/24 14:55:36;;;;;;;6.28;1.30;;;6.80;95.00;;;;;;6137293;23;20052;-85
2023/11/24 14:58:03;;;;;;;7.22;0.60;;;6.80;94.80;;;;;;6162405;23;20036;-86
2023/11/24 15:00:33;;;;;;;6.30;0.68;;;6.70;94.80;;;;;;6162362;23;20017;-87
2023/11/24 15:03:15;;;;;;;4.35;0.88;;;6.50;95.20;;;;;;6184028;23;20017;-84
2023/11/24 15:05:46;;;;;;;3.15;0.43;;;6.30;95.60;;;;;;6186341;23;20037;-84
2023/11/24 15:08:17;;;;;;;3.40;0.30;;;6.10;96.00;;;;;;6162889;23;20047;-86
2023/11/24 15:10:47;;;;;;;4.70;0.68;;;5.80;96.30;;;;;;6185420;23;20025;-83
2023/11/24 15:13:22;;;;;;;1.52;0.10;;;5.70;96.60;;;;;;6137653;23;20021;-84
2023/11/24 15:15:49;;;;;;;1.75;0.20;;;5.50;96.90;;;;;;6161262;23;20047;-84
2023/11/24 15:18:20;;;;;;;6.00;0.65;;;5.40;97.10;;;;;;6162674;23;20022;-84
2023/11/24 15:20:48;;;;;;;0.98;0.13;;;5.30;97.30;;;;;;6138360;23;20028;-83
2023/11/24 15:23:15;;;;;;;1.88;0.30;;;5.20;97.30;;;;;;6186438;23;20021;-86
2023/11/24 15:25:55;;;;;;;2.78;0.20;;;5.10;97.50;;;;;;6161787;23;20313;-85
2023/11/24 15:28:23;;;;;;;2.33;0.30;;;5.00;97.60;;;;;;6161428;23;20040;-82
2023/11/24 15:30:54;;;;;;;1.08;0.20;;;4.90;97.70;;;;;;6161133;23;20079;-83
2023/11/24 15:33:22;;;;;;;3.63;0.30;;;4.90;97.80;;;;;;6161473;23;20017;-85
2023/11/24 15:36:23;;;;;;;;;;;;;;;;;;;;;